sensor_id;sensor_type;location;lat;lon;timestamp;P1;durP1;ratioP1;P2;durP2;ratioP2
20122;SDS011;10222;50.848;4.336;2023-02-11T00:00:34;6.03;;;3.40;;
20122;SDS011;10222;50.848;4.336;2023-02-11T00:03:01;9.23;;;3.87;;
20122;SDS011;10222;50.848;4.336;2023-02-11T00:05:28;7.67;;;3.70;;
20122;SDS011;10222;50.848;4.336;2023-02-11T00:07:54;6.80;;;3.80;;
20122;SDS011;10222;50.848;4.336;2023-02-11T00:10:22;9.80;;;3.73;;
20122;SDS011;10222;50.848;4.336;2023-02-11T00:12:49;8.93;;;3.27;;
20122;SDS011;10222;50.848;4.336;2023-02-11T00:15:15;10.63;;;4.27;;
20122;SDS011;10222;50.848;4.336;2023-02-11T00:17:43;5.77;;;3.30;;
20122;SDS011;10222;50.848;4.336;2023-02-11T00:20:10;6.33;;;3.10;;
20122;SDS011;10222;50.848;4.336;2023-02-11T00:22:39;8.60;;;3.67;;
20122;SDS011;10222;50.848;4.336;2023-02-11T00:25:08;5.90;;;3.43;;
20122;SDS011;10222;50.848;4.336;2023-02-11T00:27:35;5.73;;;2.97;;
20122;SDS011;10222;50.848;4.336;2023-02-11T00:30:02;5.73;;;3.17;;
20122;SDS011;10222;50.848;4.336;2023-02-11T00:32:32;7.40;;;3.13;;
20122;SDS011;10222;50.848;4.336;2023-02-11T00:34:58;4.83;;;3.17;;
20122;SDS011;10222;50.848;4.336;2023-02-11T00:37:24;12.03;;;3.60;;
20122;SDS011;10222;50.848;4.336;2023-02-11T00:42:22;12.73;;;3.33;;
20122;SDS011;10222;50.848;4.336;2023-02-11T00:44:49;8.80;;;3.90;;
20122;SDS011;10222;50.848;4.336;2023-02-11T00:47:19;6.63;;;2.83;;
20122;SDS011;10222;50.848;4.336;2023-02-11T00:49:46;4.67;;;2.67;;
20122;SDS011;10222;50.848;4.336;2023-02-11T00:52:12;6.80;;;3.17;;
20122;SDS011;10222;50.848;4.336;2023-02-11T00:54:39;7.77;;;3.40;;
20122;SDS011;10222;50.848;4.336;2023-02-11T00:57:06;5.00;;;3.17;;
20122;SDS011;10222;50.848;4.336;2023-02-11T00:59:32;11.60;;;4.03;;
20122;SDS011;10222;50.848;4.336;2023-02-11T01:04:27;4.87;;;2.80;;
20122;SDS011;10222;50.848;4.336;2023-02-11T01:06:53;6.60;;;3.40;;
20122;SDS011;10222;50.848;4.336;2023-02-11T01:09:19;8.37;;;3.17;;
20122;SDS011;10222;50.848;4.336;2023-02-11T01:11:47;5.27;;;3.13;;
20122;SDS011;10222;50.848;4.336;2023-02-11T01:14:13;7.77;;;3.73;;
20122;SDS011;10222;50.848;4.336;2023-02-11T01:16:44;7.93;;;3.53;;
20122;SDS011;10222;50.848;4.336;2023-02-11T01:19:16;5.83;;;2.80;;
20122;SDS011;10222;50.848;4.336;2023-02-11T01:21:44;7.13;;;2.90;;
20122;SDS011;10222;50.848;4.336;2023-02-11T01:24:12;5.37;;;3.30;;
20122;SDS011;10222;50.848;4.336;2023-02-11T01:26:39;5.60;;;3.07;;
20122;SDS011;10222;50.848;4.336;2023-02-11T01:31:34;5.97;;;2.97;;
20122;SDS011;10222;50.848;4.336;2023-02-11T01:34:06;5.63;;;3.53;;
20122;SDS011;10222;50.848;4.336;2023-02-11T01:36:33;8.33;;;3.07;;
20122;SDS011;10222;50.848;4.336;2023-02-11T01:38:59;9.13;;;2.97;;
20122;SDS011;10222;50.848;4.336;2023-02-11T01:41:25;5.70;;;3.10;;
20122;SDS011;10222;50.848;4.336;2023-02-11T01:43:51;13.83;;;4.63;;
20122;SDS011;10222;50.848;4.336;2023-02-11T01:48:48;4.47;;;2.60;;
20122;SDS011;10222;50.848;4.336;2023-02-11T01:51:17;6.43;;;2.80;;
20122;SDS011;10222;50.848;4.336;2023-02-11T01:53:47;7.77;;;3.03;;
20122;SDS011;10222;50.848;4.336;2023-02-11T01:56:34;10.80;;;3.90;;
20122;SDS011;10222;50.848;4.336;2023-02-11T01:59:22;6.67;;;2.60;;
20122;SDS011;10222;50.848;4.336;2023-02-11T02:01:52;8.87;;;3.23;;
20122;SDS011;10222;50.848;4.336;2023-02-11T02:04:24;9.00;;;3.03;;
20122;SDS011;10222;50.848;4.336;2023-02-11T02:06:58;6.53;;;3.30;;
20122;SDS011;10222;50.848;4.336;2023-02-11T02:09:27;4.97;;;2.60;;
20122;SDS011;10222;50.848;4.336;2023-02-11T02:11:55;13.37;;;3.67;;
20122;SDS011;10222;50.848;4.336;2023-02-11T02:14:21;5.27;;;3.07;;
20122;SDS011;10222;50.848;4.336;2023-02-11T02:16:49;7.07;;;2.87;;
20122;SDS011;10222;50.848;4.336;2023-02-11T02:22:52;8.07;;;3.07;;
20122;SDS011;10222;50.848;4.336;2023-02-11T02:35:47;5.73;;;2.83;;
20122;SDS011;10222;50.848;4.336;2023-02-11T02:38:37;5.63;;;3.17;;
20122;SDS011;10222;50.848;4.336;2023-02-11T02:41:09;10.40;;;2.80;;
20122;SDS011;10222;50.848;4.336;2023-02-11T02:43:40;6.73;;;2.97;;
20122;SDS011;10222;50.848;4.336;2023-02-11T02:48:45;8.13;;;2.97;;
20122;SDS011;10222;50.848;4.336;2023-02-11T02:53:49;6.30;;;2.30;;
20122;SDS011;10222;50.848;4.336;2023-02-11T03:01:23;4.87;;;2.70;;
20122;SDS011;10222;50.848;4.336;2023-02-11T03:09:28;4.80;;;2.40;;
20122;SDS011;10222;50.848;4.336;2023-02-11T03:11:56;4.60;;;2.97;;
20122;SDS011;10222;50.848;4.336;2023-02-11T03:14:23;6.53;;;2.73;;
20122;SDS011;10222;50.848;4.336;2023-02-11T03:16:54;6.77;;;2.50;;
20122;SDS011;10222;50.848;4.336;2023-02-11T03:19:25;5.57;;;2.67;;
20122;SDS011;10222;50.848;4.336;2023-02-11T03:21:54;6.00;;;2.33;;
20122;SDS011;10222;50.848;4.336;2023-02-11T03:24:33;8.00;;;2.60;;
20122;SDS011;10222;50.848;4.336;2023-02-11T03:27:05;5.67;;;2.53;;
20122;SDS011;10222;50.848;4.336;2023-02-11T03:29:42;5.80;;;2.67;;
20122;SDS011;10222;50.848;4.336;2023-02-11T03:37:16;5.60;;;2.60;;
20122;SDS011;10222;50.848;4.336;2023-02-11T03:39:59;5.77;;;3.47;;
20122;SDS011;10222;50.848;4.336;2023-02-11T03:42:29;4.00;;;2.47;;
20122;SDS011;10222;50.848;4.336;2023-02-11T03:44:58;4.77;;;3.07;;
20122;SDS011;10222;50.848;4.336;2023-02-11T03:47:26;3.50;;;2.67;;
20122;SDS011;10222;50.848;4.336;2023-02-11T03:49:56;5.30;;;3.10;;
20122;SDS011;10222;50.848;4.336;2023-02-11T03:52:25;4.87;;;3.20;;
20122;SDS011;10222;50.848;4.336;2023-02-11T03:54:55;7.33;;;3.30;;
20122;SDS011;10222;50.848;4.336;2023-02-11T03:57:23;7.07;;;3.30;;
20122;SDS011;10222;50.848;4.336;2023-02-11T04:00:00;5.50;;;3.30;;
20122;SDS011;10222;50.848;4.336;2023-02-11T04:02:34;4.67;;;3.00;;
20122;SDS011;10222;50.848;4.336;2023-02-11T04:05:04;4.73;;;2.93;;
20122;SDS011;10222;50.848;4.336;2023-02-11T04:07:32;6.80;;;3.37;;
20122;SDS011;10222;50.848;4.336;2023-02-11T04:09:59;6.17;;;3.07;;
20122;SDS011;10222;50.848;4.336;2023-02-11T04:12:26;3.83;;;2.90;;
20122;SDS011;10222;50.848;4.336;2023-02-11T04:14:52;6.93;;;3.70;;
20122;SDS011;10222;50.848;4.336;2023-02-11T04:17:19;6.50;;;3.17;;
20122;SDS011;10222;50.848;4.336;2023-02-11T04:19:46;10.10;;;3.47;;
20122;SDS011;10222;50.848;4.336;2023-02-11T04:22:13;7.23;;;2.97;;
20122;SDS011;10222;50.848;4.336;2023-02-11T04:24:40;10.00;;;4.30;;
20122;SDS011;10222;50.848;4.336;2023-02-11T04:27:10;5.57;;;3.00;;
20122;SDS011;10222;50.848;4.336;2023-02-11T04:29:36;6.47;;;3.00;;
20122;SDS011;10222;50.848;4.336;2023-02-11T04:32:02;6.63;;;3.10;;
20122;SDS011;10222;50.848;4.336;2023-02-11T04:34:28;5.63;;;3.40;;
20122;SDS011;10222;50.848;4.336;2023-02-11T04:36:54;7.73;;;3.97;;
20122;SDS011;10222;50.848;4.336;2023-02-11T04:39:20;6.13;;;3.00;;
20122;SDS011;10222;50.848;4.336;2023-02-11T04:41:46;5.10;;;3.10;;
20122;SDS011;10222;50.848;4.336;2023-02-11T04:44:12;5.63;;;3.13;;
20122;SDS011;10222;50.848;4.336;2023-02-11T04:51:37;6.33;;;3.37;;
20122;SDS011;10222;50.848;4.336;2023-02-11T04:54:04;7.73;;;3.60;;
20122;SDS011;10222;50.848;4.336;2023-02-11T04:56:33;4.27;;;2.97;;
20122;SDS011;10222;50.848;4.336;2023-02-11T05:01:28;7.63;;;3.57;;
20122;SDS011;10222;50.848;4.336;2023-02-11T05:03:54;6.97;;;3.83;;
20122;SDS011;10222;50.848;4.336;2023-02-11T05:06:23;8.77;;;3.60;;
20122;SDS011;10222;50.848;4.336;2023-02-11T05:08:51;13.87;;;4.77;;
20122;SDS011;10222;50.848;4.336;2023-02-11T05:11:18;10.40;;;3.17;;
20122;SDS011;10222;50.848;4.336;2023-02-11T05:13:45;7.70;;;3.60;;
20122;SDS011;10222;50.848;4.336;2023-02-11T05:16:17;10.73;;;3.67;;
20122;SDS011;10222;50.848;4.336;2023-02-11T05:18:44;5.93;;;3.30;;
20122;SDS011;10222;50.848;4.336;2023-02-11T05:21:15;8.80;;;4.00;;
20122;SDS011;10222;50.848;4.336;2023-02-11T05:23:43;14.30;;;3.87;;
20122;SDS011;10222;50.848;4.336;2023-02-11T05:26:09;6.43;;;3.60;;
20122;SDS011;10222;50.848;4.336;2023-02-11T05:28:36;6.50;;;3.63;;
20122;SDS011;10222;50.848;4.336;2023-02-11T05:31:03;7.37;;;3.67;;
20122;SDS011;10222;50.848;4.336;2023-02-11T05:33:32;10.30;;;4.03;;
20122;SDS011;10222;50.848;4.336;2023-02-11T05:36:02;16.57;;;5.10;;
20122;SDS011;10222;50.848;4.336;2023-02-11T05:38:30;6.53;;;3.60;;
20122;SDS011;10222;50.848;4.336;2023-02-11T05:40:57;11.70;;;3.90;;
20122;SDS011;10222;50.848;4.336;2023-02-11T05:43:25;6.93;;;3.43;;
20122;SDS011;10222;50.848;4.336;2023-02-11T05:45:52;7.47;;;4.07;;
20122;SDS011;10222;50.848;4.336;2023-02-11T05:48:20;5.83;;;3.53;;
20122;SDS011;10222;50.848;4.336;2023-02-11T05:50:48;6.00;;;3.43;;
20122;SDS011;10222;50.848;4.336;2023-02-11T05:53:15;7.10;;;4.33;;
20122;SDS011;10222;50.848;4.336;2023-02-11T05:55:41;10.27;;;4.03;;
20122;SDS011;10222;50.848;4.336;2023-02-11T05:58:09;6.93;;;3.83;;
20122;SDS011;10222;50.848;4.336;2023-02-11T06:00:36;7.83;;;4.13;;
20122;SDS011;10222;50.848;4.336;2023-02-11T06:03:04;12.60;;;4.20;;
20122;SDS011;10222;50.848;4.336;2023-02-11T06:05:33;9.80;;;4.70;;
20122;SDS011;10222;50.848;4.336;2023-02-11T06:08:01;8.77;;;4.00;;
20122;SDS011;10222;50.848;4.336;2023-02-11T06:10:27;7.87;;;4.23;;
20122;SDS011;10222;50.848;4.336;2023-02-11T06:12:54;10.33;;;4.80;;
20122;SDS011;10222;50.848;4.336;2023-02-11T06:15:20;9.00;;;5.73;;
20122;SDS011;10222;50.848;4.336;2023-02-11T06:17:46;6.30;;;3.87;;
20122;SDS011;10222;50.848;4.336;2023-02-11T06:22:42;12.23;;;4.60;;
20122;SDS011;10222;50.848;4.336;2023-02-11T06:25:10;10.57;;;4.83;;
20122;SDS011;10222;50.848;4.336;2023-02-11T06:27:37;7.47;;;4.43;;
20122;SDS011;10222;50.848;4.336;2023-02-11T06:30:04;10.97;;;4.83;;
20122;SDS011;10222;50.848;4.336;2023-02-11T06:32:37;10.73;;;5.50;;
20122;SDS011;10222;50.848;4.336;2023-02-11T06:35:04;11.53;;;5.37;;
20122;SDS011;10222;50.848;4.336;2023-02-11T06:37:33;13.23;;;5.50;;
20122;SDS011;10222;50.848;4.336;2023-02-11T06:40:00;15.87;;;5.50;;
20122;SDS011;10222;50.848;4.336;2023-02-11T06:42:27;11.03;;;5.53;;
20122;SDS011;10222;50.848;4.336;2023-02-11T06:44:53;9.90;;;5.07;;
20122;SDS011;10222;50.848;4.336;2023-02-11T06:47:25;11.87;;;5.47;;
20122;SDS011;10222;50.848;4.336;2023-02-11T06:49:51;12.37;;;5.87;;
20122;SDS011;10222;50.848;4.336;2023-02-11T06:52:18;14.70;;;5.40;;
20122;SDS011;10222;50.848;4.336;2023-02-11T06:54:47;12.37;;;5.43;;
20122;SDS011;10222;50.848;4.336;2023-02-11T06:57:29;9.93;;;5.13;;
20122;SDS011;10222;50.848;4.336;2023-02-11T06:59:56;17.97;;;6.30;;
20122;SDS011;10222;50.848;4.336;2023-02-11T07:02:24;9.57;;;5.40;;
20122;SDS011;10222;50.848;4.336;2023-02-11T07:04:50;15.63;;;5.87;;
20122;SDS011;10222;50.848;4.336;2023-02-11T07:07:19;12.70;;;5.90;;
20122;SDS011;10222;50.848;4.336;2023-02-11T07:09:48;12.00;;;5.93;;
20122;SDS011;10222;50.848;4.336;2023-02-11T07:12:17;14.20;;;6.00;;
20122;SDS011;10222;50.848;4.336;2023-02-11T07:14:43;11.83;;;6.00;;
20122;SDS011;10222;50.848;4.336;2023-02-11T07:17:10;18.63;;;7.50;;
20122;SDS011;10222;50.848;4.336;2023-02-11T07:19:37;14.23;;;6.10;;
20122;SDS011;10222;50.848;4.336;2023-02-11T07:22:04;12.83;;;5.73;;
20122;SDS011;10222;50.848;4.336;2023-02-11T07:24:31;12.83;;;7.13;;
20122;SDS011;10222;50.848;4.336;2023-02-11T07:26:57;14.13;;;5.63;;
20122;SDS011;10222;50.848;4.336;2023-02-11T07:29:23;13.60;;;5.43;;
20122;SDS011;10222;50.848;4.336;2023-02-11T07:31:49;11.90;;;5.77;;
20122;SDS011;10222;50.848;4.336;2023-02-11T07:34:15;11.77;;;5.87;;
20122;SDS011;10222;50.848;4.336;2023-02-11T07:36:42;13.20;;;6.07;;
20122;SDS011;10222;50.848;4.336;2023-02-11T07:39:09;12.67;;;5.63;;
20122;SDS011;10222;50.848;4.336;2023-02-11T07:41:35;16.23;;;6.63;;
20122;SDS011;10222;50.848;4.336;2023-02-11T07:44:01;14.43;;;6.50;;
20122;SDS011;10222;50.848;4.336;2023-02-11T07:46:27;9.50;;;5.33;;
20122;SDS011;10222;50.848;4.336;2023-02-11T07:48:54;13.20;;;6.80;;
20122;SDS011;10222;50.848;4.336;2023-02-11T07:51:21;13.17;;;5.97;;
20122;SDS011;10222;50.848;4.336;2023-02-11T07:53:47;16.97;;;6.23;;
20122;SDS011;10222;50.848;4.336;2023-02-11T07:56:14;12.10;;;6.27;;
20122;SDS011;10222;50.848;4.336;2023-02-11T07:58:40;13.63;;;6.30;;
20122;SDS011;10222;50.848;4.336;2023-02-11T08:01:08;15.20;;;7.50;;
20122;SDS011;10222;50.848;4.336;2023-02-11T08:03:34;20.43;;;6.93;;
20122;SDS011;10222;50.848;4.336;2023-02-11T08:06:08;11.83;;;6.43;;
20122;SDS011;10222;50.848;4.336;2023-02-11T08:08:34;15.30;;;6.03;;
20122;SDS011;10222;50.848;4.336;2023-02-11T08:11:04;17.73;;;6.47;;
20122;SDS011;10222;50.848;4.336;2023-02-11T08:13:31;14.30;;;6.83;;
20122;SDS011;10222;50.848;4.336;2023-02-11T08:15:57;20.37;;;8.23;;
20122;SDS011;10222;50.848;4.336;2023-02-11T08:18:23;15.10;;;6.10;;
20122;SDS011;10222;50.848;4.336;2023-02-11T08:20:49;19.17;;;7.80;;
20122;SDS011;10222;50.848;4.336;2023-02-11T08:23:15;25.60;;;8.73;;
20122;SDS011;10222;50.848;4.336;2023-02-11T08:25:41;14.10;;;7.27;;
20122;SDS011;10222;50.848;4.336;2023-02-11T08:28:07;15.93;;;6.80;;
20122;SDS011;10222;50.848;4.336;2023-02-11T08:30:33;17.00;;;7.47;;
20122;SDS011;10222;50.848;4.336;2023-02-11T08:32:59;16.20;;;7.20;;
20122;SDS011;10222;50.848;4.336;2023-02-11T08:35:25;27.17;;;9.60;;
20122;SDS011;10222;50.848;4.336;2023-02-11T08:37:51;19.93;;;7.60;;
20122;SDS011;10222;50.848;4.336;2023-02-11T08:40:18;19.90;;;8.20;;
20122;SDS011;10222;50.848;4.336;2023-02-11T08:42:44;17.33;;;7.30;;
20122;SDS011;10222;50.848;4.336;2023-02-11T08:45:10;17.47;;;7.87;;
20122;SDS011;10222;50.848;4.336;2023-02-11T08:47:36;19.90;;;7.90;;
20122;SDS011;10222;50.848;4.336;2023-02-11T08:50:02;19.70;;;7.87;;
20122;SDS011;10222;50.848;4.336;2023-02-11T08:52:28;24.83;;;8.57;;
20122;SDS011;10222;50.848;4.336;2023-02-11T08:54:55;22.07;;;8.07;;
20122;SDS011;10222;50.848;4.336;2023-02-11T08:57:22;23.33;;;8.67;;
20122;SDS011;10222;50.848;4.336;2023-02-11T08:59:47;20.23;;;9.37;;
20122;SDS011;10222;50.848;4.336;2023-02-11T09:02:14;18.43;;;8.23;;
20122;SDS011;10222;50.848;4.336;2023-02-11T09:04:39;16.67;;;7.97;;
20122;SDS011;10222;50.848;4.336;2023-02-11T09:07:06;26.50;;;10.23;;
20122;SDS011;10222;50.848;4.336;2023-02-11T09:09:32;27.80;;;10.70;;
20122;SDS011;10222;50.848;4.336;2023-02-11T09:11:58;21.23;;;9.43;;
20122;SDS011;10222;50.848;4.336;2023-02-11T09:14:25;24.23;;;10.80;;
20122;SDS011;10222;50.848;4.336;2023-02-11T09:16:51;24.10;;;11.03;;
20122;SDS011;10222;50.848;4.336;2023-02-11T09:19:17;20.17;;;10.20;;
20122;SDS011;10222;50.848;4.336;2023-02-11T09:21:44;22.87;;;8.50;;
20122;SDS011;10222;50.848;4.336;2023-02-11T09:24:10;22.07;;;8.83;;
20122;SDS011;10222;50.848;4.336;2023-02-11T09:26:36;38.50;;;11.07;;
20122;SDS011;10222;50.848;4.336;2023-02-11T09:29:02;22.23;;;9.57;;
20122;SDS011;10222;50.848;4.336;2023-02-11T09:31:29;26.73;;;10.30;;
20122;SDS011;10222;50.848;4.336;2023-02-11T09:33:57;22.13;;;9.47;;
20122;SDS011;10222;50.848;4.336;2023-02-11T09:36:27;27.93;;;10.00;;
20122;SDS011;10222;50.848;4.336;2023-02-11T09:38:54;23.40;;;10.30;;
20122;SDS011;10222;50.848;4.336;2023-02-11T09:41:32;26.60;;;10.60;;
20122;SDS011;10222;50.848;4.336;2023-02-11T09:44:00;24.43;;;11.20;;
20122;SDS011;10222;50.848;4.336;2023-02-11T09:46:33;27.90;;;12.83;;
20122;SDS011;10222;50.848;4.336;2023-02-11T09:49:00;22.07;;;9.73;;
20122;SDS011;10222;50.848;4.336;2023-02-11T09:51:48;24.00;;;9.00;;
20122;SDS011;10222;50.848;4.336;2023-02-11T09:54:15;21.00;;;9.33;;
20122;SDS011;10222;50.848;4.336;2023-02-11T09:56:43;22.00;;;8.60;;
20122;SDS011;10222;50.848;4.336;2023-02-11T09:59:09;26.80;;;9.43;;
20122;SDS011;10222;50.848;4.336;2023-02-11T10:01:46;20.53;;;9.70;;
20122;SDS011;10222;50.848;4.336;2023-02-11T10:22:26;25.43;;;10.03;;
20122;SDS011;10222;50.848;4.336;2023-02-11T10:24:53;27.20;;;9.87;;
20122;SDS011;10222;50.848;4.336;2023-02-11T10:27:30;29.63;;;10.10;;
20122;SDS011;10222;50.848;4.336;2023-02-11T10:30:03;18.20;;;9.27;;
20122;SDS011;10222;50.848;4.336;2023-02-11T10:35:12;28.73;;;10.97;;
20122;SDS011;10222;50.848;4.336;2023-02-11T10:37:40;21.00;;;10.00;;
20122;SDS011;10222;50.848;4.336;2023-02-11T10:40:18;22.57;;;10.37;;
20122;SDS011;10222;50.848;4.336;2023-02-11T10:42:47;30.73;;;9.50;;
20122;SDS011;10222;50.848;4.336;2023-02-11T10:45:29;21.60;;;9.80;;
20122;SDS011;10222;50.848;4.336;2023-02-11T10:47:59;21.50;;;10.07;;
20122;SDS011;10222;50.848;4.336;2023-02-11T10:50:28;25.40;;;10.70;;
20122;SDS011;10222;50.848;4.336;2023-02-11T10:55:47;23.50;;;10.27;;
20122;SDS011;10222;50.848;4.336;2023-02-11T10:58:24;25.93;;;11.37;;
20122;SDS011;10222;50.848;4.336;2023-02-11T11:00:52;26.50;;;11.37;;
20122;SDS011;10222;50.848;4.336;2023-02-11T11:03:19;24.70;;;10.00;;
20122;SDS011;10222;50.848;4.336;2023-02-11T11:11:00;24.33;;;10.70;;
20122;SDS011;10222;50.848;4.336;2023-02-11T11:16:31;28.67;;;11.23;;
20122;SDS011;10222;50.848;4.336;2023-02-11T11:19:13;31.70;;;10.87;;
20122;SDS011;10222;50.848;4.336;2023-02-11T11:21:41;24.33;;;10.90;;
20122;SDS011;10222;50.848;4.336;2023-02-11T11:24:21;24.07;;;10.63;;
20122;SDS011;10222;50.848;4.336;2023-02-11T11:26:54;32.90;;;12.10;;
20122;SDS011;10222;50.848;4.336;2023-02-11T11:29:22;26.37;;;11.03;;
20122;SDS011;10222;50.848;4.336;2023-02-11T11:31:53;27.83;;;11.10;;
20122;SDS011;10222;50.848;4.336;2023-02-11T11:36:58;28.83;;;11.77;;
20122;SDS011;10222;50.848;4.336;2023-02-11T11:39:29;28.80;;;11.40;;
20122;SDS011;10222;50.848;4.336;2023-02-11T11:42:00;28.17;;;10.53;;
20122;SDS011;10222;50.848;4.336;2023-02-11T11:44:30;26.03;;;10.40;;
20122;SDS011;10222;50.848;4.336;2023-02-11T11:47:06;29.23;;;11.37;;
20122;SDS011;10222;50.848;4.336;2023-02-11T11:54:58;23.37;;;10.03;;
20122;SDS011;10222;50.848;4.336;2023-02-11T11:57:27;27.80;;;11.37;;
20122;SDS011;10222;50.848;4.336;2023-02-11T11:59:56;23.90;;;9.87;;
20122;SDS011;10222;50.848;4.336;2023-02-11T12:05:08;26.93;;;11.37;;
20122;SDS011;10222;50.848;4.336;2023-02-11T12:18:10;28.33;;;11.40;;
20122;SDS011;10222;50.848;4.336;2023-02-11T12:25:59;30.70;;;11.57;;
20122;SDS011;10222;50.848;4.336;2023-02-11T12:33:44;32.70;;;11.93;;
20122;SDS011;10222;50.848;4.336;2023-02-11T12:39:01;27.40;;;11.73;;
20122;SDS011;10222;50.848;4.336;2023-02-11T12:44:23;25.87;;;10.90;;
20122;SDS011;10222;50.848;4.336;2023-02-11T12:47:16;22.77;;;10.83;;
20122;SDS011;10222;50.848;4.336;2023-02-11T12:52:28;22.63;;;10.10;;
20122;SDS011;10222;50.848;4.336;2023-02-11T12:55:00;28.93;;;11.43;;
20122;SDS011;10222;50.848;4.336;2023-02-11T12:57:28;29.93;;;13.20;;
20122;SDS011;10222;50.848;4.336;2023-02-11T13:00:03;27.03;;;12.27;;
20122;SDS011;10222;50.848;4.336;2023-02-11T13:02:38;22.57;;;11.30;;
20122;SDS011;10222;50.848;4.336;2023-02-11T13:07:38;21.27;;;10.23;;
20122;SDS011;10222;50.848;4.336;2023-02-11T13:10:25;27.60;;;11.83;;
20122;SDS011;10222;50.848;4.336;2023-02-11T13:12:53;27.73;;;12.53;;
20122;SDS011;10222;50.848;4.336;2023-02-11T13:15:39;28.63;;;12.10;;
20122;SDS011;10222;50.848;4.336;2023-02-11T13:18:12;29.33;;;11.83;;
20122;SDS011;10222;50.848;4.336;2023-02-11T13:31:51;22.33;;;10.67;;
20122;SDS011;10222;50.848;4.336;2023-02-11T13:37:02;27.80;;;11.10;;
20122;SDS011;10222;50.848;4.336;2023-02-11T13:39:30;34.07;;;12.40;;
20122;SDS011;10222;50.848;4.336;2023-02-11T13:42:02;25.47;;;11.53;;
20122;SDS011;10222;50.848;4.336;2023-02-11T13:44:31;27.93;;;11.40;;
20122;SDS011;10222;50.848;4.336;2023-02-11T13:47:05;27.83;;;12.20;;
20122;SDS011;10222;50.848;4.336;2023-02-11T13:54:45;23.97;;;10.60;;
20122;SDS011;10222;50.848;4.336;2023-02-11T13:57:32;25.77;;;11.17;;
20122;SDS011;10222;50.848;4.336;2023-02-11T14:00:05;27.33;;;11.97;;
20122;SDS011;10222;50.848;4.336;2023-02-11T14:02:35;26.80;;;12.77;;
20122;SDS011;10222;50.848;4.336;2023-02-11T14:21:20;31.27;;;13.00;;
20122;SDS011;10222;50.848;4.336;2023-02-11T14:23:54;34.67;;;13.47;;
20122;SDS011;10222;50.848;4.336;2023-02-11T14:26:50;24.37;;;11.17;;
20122;SDS011;10222;50.848;4.336;2023-02-11T14:37:17;27.90;;;12.53;;
20122;SDS011;10222;50.848;4.336;2023-02-11T14:42:33;29.10;;;12.00;;
20122;SDS011;10222;50.848;4.336;2023-02-11T14:45:05;30.27;;;13.17;;
20122;SDS011;10222;50.848;4.336;2023-02-11T14:47:42;30.17;;;14.30;;
20122;SDS011;10222;50.848;4.336;2023-02-11T14:50:23;25.60;;;13.67;;
20122;SDS011;10222;50.848;4.336;2023-02-11T14:58:10;31.83;;;13.93;;
20122;SDS011;10222;50.848;4.336;2023-02-11T15:00:59;22.27;;;11.17;;
20122;SDS011;10222;50.848;4.336;2023-02-11T15:08:45;28.60;;;12.57;;
20122;SDS011;10222;50.848;4.336;2023-02-11T15:11:14;30.57;;;13.27;;
20122;SDS011;10222;50.848;4.336;2023-02-11T15:13:44;29.10;;;13.07;;
20122;SDS011;10222;50.848;4.336;2023-02-11T15:16:25;31.60;;;13.43;;
20122;SDS011;10222;50.848;4.336;2023-02-11T15:18:56;27.53;;;13.03;;
20122;SDS011;10222;50.848;4.336;2023-02-11T15:21:31;29.83;;;15.17;;
20122;SDS011;10222;50.848;4.336;2023-02-11T15:24:03;28.73;;;14.07;;
20122;SDS011;10222;50.848;4.336;2023-02-11T15:26:32;32.73;;;14.80;;
20122;SDS011;10222;50.848;4.336;2023-02-11T15:29:00;34.13;;;14.60;;
20122;SDS011;10222;50.848;4.336;2023-02-11T15:31:27;27.13;;;12.83;;
20122;SDS011;10222;50.848;4.336;2023-02-11T15:33:56;37.70;;;15.20;;
20122;SDS011;10222;50.848;4.336;2023-02-11T15:36:31;31.77;;;14.20;;
20122;SDS011;10222;50.848;4.336;2023-02-11T15:39:17;31.40;;;14.47;;
20122;SDS011;10222;50.848;4.336;2023-02-11T15:41:43;29.07;;;13.77;;
20122;SDS011;10222;50.848;4.336;2023-02-11T15:46:57;27.63;;;13.60;;
20122;SDS011;10222;50.848;4.336;2023-02-11T15:49:25;30.40;;;13.60;;
20122;SDS011;10222;50.848;4.336;2023-02-11T15:51:52;36.47;;;14.33;;
20122;SDS011;10222;50.848;4.336;2023-02-11T15:54:21;26.70;;;12.80;;
20122;SDS011;10222;50.848;4.336;2023-02-11T15:56:51;32.47;;;13.63;;
20122;SDS011;10222;50.848;4.336;2023-02-11T16:01:53;30.07;;;13.47;;
20122;SDS011;10222;50.848;4.336;2023-02-11T16:06:48;40.40;;;15.33;;
20122;SDS011;10222;50.848;4.336;2023-02-11T16:19:25;35.00;;;14.47;;
20122;SDS011;10222;50.848;4.336;2023-02-11T16:21:52;32.90;;;15.10;;
20122;SDS011;10222;50.848;4.336;2023-02-11T16:24:52;33.23;;;13.77;;
20122;SDS011;10222;50.848;4.336;2023-02-11T16:27:19;31.03;;;13.47;;
20122;SDS011;10222;50.848;4.336;2023-02-11T16:29:47;34.37;;;15.23;;
20122;SDS011;10222;50.848;4.336;2023-02-11T16:32:17;34.30;;;14.60;;
20122;SDS011;10222;50.848;4.336;2023-02-11T16:34:44;32.03;;;14.57;;
20122;SDS011;10222;50.848;4.336;2023-02-11T16:37:12;26.97;;;13.73;;
20122;SDS011;10222;50.848;4.336;2023-02-11T16:39:39;38.13;;;14.47;;
20122;SDS011;10222;50.848;4.336;2023-02-11T16:42:11;35.33;;;14.60;;
20122;SDS011;10222;50.848;4.336;2023-02-11T16:44:38;30.70;;;14.10;;
20122;SDS011;10222;50.848;4.336;2023-02-11T16:47:12;31.80;;;15.07;;
20122;SDS011;10222;50.848;4.336;2023-02-11T16:49:43;28.23;;;14.17;;
20122;SDS011;10222;50.848;4.336;2023-02-11T16:52:15;32.50;;;15.50;;
20122;SDS011;10222;50.848;4.336;2023-02-11T16:57:15;28.17;;;14.77;;
20122;SDS011;10222;50.848;4.336;2023-02-11T16:59:45;33.67;;;15.03;;
20122;SDS011;10222;50.848;4.336;2023-02-11T17:02:15;35.63;;;15.13;;
20122;SDS011;10222;50.848;4.336;2023-02-11T17:04:44;33.30;;;15.57;;
20122;SDS011;10222;50.848;4.336;2023-02-11T17:07:13;33.97;;;15.40;;
20122;SDS011;10222;50.848;4.336;2023-02-11T17:12:11;34.20;;;15.90;;
20122;SDS011;10222;50.848;4.336;2023-02-11T17:14:37;29.77;;;15.50;;
20122;SDS011;10222;50.848;4.336;2023-02-11T17:17:03;31.33;;;15.03;;
20122;SDS011;10222;50.848;4.336;2023-02-11T17:19:30;30.20;;;15.00;;
20122;SDS011;10222;50.848;4.336;2023-02-11T17:21:57;33.60;;;16.00;;
20122;SDS011;10222;50.848;4.336;2023-02-11T17:24:23;34.27;;;16.43;;
20122;SDS011;10222;50.848;4.336;2023-02-11T17:31:48;31.77;;;15.20;;
20122;SDS011;10222;50.848;4.336;2023-02-11T17:34:19;27.17;;;13.73;;
20122;SDS011;10222;50.848;4.336;2023-02-11T17:36:48;29.03;;;14.33;;
20122;SDS011;10222;50.848;4.336;2023-02-11T17:39:17;33.03;;;14.83;;
20122;SDS011;10222;50.848;4.336;2023-02-11T17:41:45;28.40;;;13.70;;
20122;SDS011;10222;50.848;4.336;2023-02-11T17:44:12;28.50;;;13.73;;
20122;SDS011;10222;50.848;4.336;2023-02-11T17:46:39;30.17;;;15.90;;
20122;SDS011;10222;50.848;4.336;2023-02-11T17:49:05;29.60;;;14.80;;
20122;SDS011;10222;50.848;4.336;2023-02-11T17:51:33;33.03;;;15.47;;
20122;SDS011;10222;50.848;4.336;2023-02-11T17:54:01;30.37;;;14.40;;
20122;SDS011;10222;50.848;4.336;2023-02-11T17:56:31;32.27;;;15.60;;
20122;SDS011;10222;50.848;4.336;2023-02-11T17:58:59;28.50;;;13.87;;
20122;SDS011;10222;50.848;4.336;2023-02-11T18:01:30;32.30;;;15.37;;
20122;SDS011;10222;50.848;4.336;2023-02-11T18:03:56;30.83;;;14.70;;
20122;SDS011;10222;50.848;4.336;2023-02-11T18:06:23;31.00;;;14.27;;
20122;SDS011;10222;50.848;4.336;2023-02-11T18:08:52;32.20;;;15.47;;
20122;SDS011;10222;50.848;4.336;2023-02-11T18:11:19;29.60;;;14.20;;
20122;SDS011;10222;50.848;4.336;2023-02-11T18:13:50;31.43;;;16.00;;
20122;SDS011;10222;50.848;4.336;2023-02-11T18:16:19;29.10;;;14.33;;
20122;SDS011;10222;50.848;4.336;2023-02-11T18:18:48;31.17;;;14.97;;